createdAt,value
2019-04-22T00:02:24.628Z,37.73
2019-04-22T00:05:07.229Z,37.33
2019-04-22T00:07:53.304Z,37.27
2019-04-22T00:10:28.952Z,34.50
2019-04-22T00:13:11.293Z,36.80
2019-04-22T00:15:20.164Z,35.23
2019-04-22T00:18:11.632Z,32.43
2019-04-22T00:20:30.782Z,34.03
2019-04-22T00:23:00.098Z,35.73
2019-04-22T00:25:45.490Z,33.90
2019-04-22T00:28:08.186Z,33.90
2019-04-22T00:30:35.971Z,34.07
2019-04-22T00:33:11.623Z,35.90
2019-04-22T00:35:41.359Z,32.57
2019-04-22T00:40:56.297Z,33.47
2019-04-22T00:43:21.071Z,34.80
2019-04-22T00:45:49.196Z,32.73
2019-04-22T00:51:05.805Z,33.30
2019-04-22T00:53:33.427Z,34.93
2019-04-22T00:56:13.797Z,34.30
2019-04-22T00:58:41.174Z,33.13
2019-04-22T01:03:50.509Z,33.47
2019-04-22T01:08:53.813Z,33.33
2019-04-22T01:11:22.767Z,34.17
2019-04-22T01:13:52.011Z,33.10
2019-04-22T01:16:25.735Z,34.17
2019-04-22T01:18:57.463Z,32.00
2019-04-22T01:21:30.755Z,34.17
2019-04-22T01:23:56.589Z,32.70
2019-04-22T01:26:24.299Z,33.88
2019-04-22T01:28:53.513Z,35.73
2019-04-22T01:31:18.137Z,31.80
2019-04-22T01:33:49.776Z,32.63
2019-04-22T01:36:38.212Z,34.80
2019-04-22T01:39:13.401Z,33.23
2019-04-22T01:41:48.413Z,34.87
2019-04-22T01:51:58.673Z,33.00
2019-04-22T01:54:27.252Z,34.53
2019-04-22T01:56:53.836Z,34.23
2019-04-22T01:59:15.718Z,33.90
2019-04-22T02:04:35.384Z,33.97
2019-04-22T02:06:57.535Z,33.53
2019-04-22T02:09:31.151Z,33.47
2019-04-22T02:12:00.565Z,33.30
2019-04-22T02:14:34.127Z,34.50
2019-04-22T02:17:01.305Z,33.00
2019-04-22T02:21:59.701Z,32.10
2019-04-22T02:24:39.858Z,33.87
2019-04-22T02:27:10.947Z,35.00
2019-04-22T02:32:19.506Z,33.97
2019-04-22T02:34:46.005Z,33.23
2019-04-22T02:37:21.021Z,35.40
2019-04-22T02:39:52.797Z,32.80
2019-04-22T02:44:46.628Z,34.80
2019-04-22T02:49:47.397Z,35.37
2019-04-22T02:52:27.776Z,33.80
2019-04-22T02:54:55.048Z,35.83
2019-04-22T03:00:00.484Z,35.20
2019-04-22T03:02:46.119Z,35.20
2019-04-22T03:05:06.195Z,33.80
2019-04-22T03:09:59.472Z,34.93
2019-04-22T03:12:29.063Z,34.13
2019-04-22T03:14:59.979Z,32.70
2019-04-22T03:17:38.352Z,33.27
2019-04-22T03:20:22.110Z,35.60
2019-04-22T03:22:34.392Z,33.53
2019-04-22T03:25:43.810Z,33.30
2019-04-22T03:40:43.269Z,33.87
2019-04-22T03:42:57.786Z,33.37
2019-04-22T03:57:56.067Z,34.10
2019-04-22T04:00:36.042Z,32.83
2019-04-22T04:03:04.690Z,31.90
2019-04-22T04:05:39.518Z,31.50
2019-04-22T04:08:12.092Z,31.10
2019-04-22T04:13:19.694Z,29.90
2019-04-22T04:15:32.819Z,30.60
2019-04-22T04:18:06.891Z,29.57
2019-04-22T04:20:45.102Z,31.30
2019-04-22T04:28:31.538Z,28.00
2019-04-22T04:30:42.834Z,27.37
2019-04-22T04:33:23.405Z,27.10
2019-04-22T04:38:28.922Z,28.30
2019-04-22T04:40:58.248Z,26.60
2019-04-22T04:43:25.771Z,25.27
2019-04-22T04:46:02.893Z,27.90
2019-04-22T04:48:39.087Z,28.00
2019-04-22T04:51:07.790Z,26.33
2019-04-22T04:56:01.877Z,26.17
2019-04-22T05:01:12.240Z,24.67
2019-04-22T05:06:09.977Z,25.90
2019-04-22T05:08:52.355Z,24.87
2019-04-22T05:11:05.572Z,24.10
2019-04-22T05:26:18.239Z,23.73
2019-04-22T05:28:42.240Z,21.83
2019-04-22T05:31:15.442Z,21.50
2019-04-22T05:33:48.348Z,21.27
2019-04-22T05:41:16.372Z,21.70
2019-04-22T05:43:51.298Z,21.20
2019-04-22T05:46:20.501Z,20.10
2019-04-22T05:48:53.783Z,21.27
2019-04-22T05:51:29.347Z,19.60
2019-04-22T05:53:54.255Z,21.77
2019-04-22T05:56:34.771Z,20.83
2019-04-22T06:01:41.726Z,18.23
2019-04-22T06:04:05.366Z,19.73
2019-04-22T06:06:34.194Z,16.67
2019-04-22T06:09:05.124Z,18.03
2019-04-22T06:11:33.998Z,19.40
2019-04-22T06:14:12.335Z,18.77
2019-04-22T06:16:50.399Z,18.90
2019-04-22T06:21:52.036Z,17.23
2019-04-22T06:24:26.078Z,17.93
2019-04-22T06:29:28.475Z,17.00
2019-04-22T06:32:17.585Z,16.63
2019-04-22T06:34:28.773Z,17.03
2019-04-22T06:39:34.550Z,16.80
2019-04-22T06:42:08.724Z,16.23
2019-04-22T06:44:37.042Z,16.30
2019-04-22T06:47:05.315Z,15.40
2019-04-22T06:49:42.182Z,14.93
2019-04-22T06:52:16.897Z,14.73
2019-04-22T06:54:44.646Z,14.97
2019-04-22T06:57:17.222Z,15.77
2019-04-22T06:59:42.641Z,15.47
2019-04-22T07:02:16.475Z,13.93
2019-04-22T07:04:53.835Z,13.83
2019-04-22T07:07:19.051Z,15.40
2019-04-22T07:12:24.698Z,14.07
2019-04-22T07:14:54.583Z,14.30
2019-04-22T07:17:22.071Z,13.30
2019-04-22T07:19:51.238Z,11.70
2019-04-22T07:22:30.650Z,13.07
2019-04-22T07:24:58.973Z,12.80
2019-04-22T07:27:28.038Z,13.07
2019-04-22T07:32:53.536Z,12.23
2019-04-22T07:35:07.475Z,9.07
2019-04-22T07:37:38.981Z,11.93
2019-04-22T07:40:02.440Z,11.77
2019-04-22T07:42:36.918Z,11.63
2019-04-22T07:45:10.274Z,11.13
2019-04-22T07:47:44.627Z,11.30
2019-04-22T07:50:25.664Z,12.03
2019-04-22T07:52:49.091Z,12.03
2019-04-22T07:55:12.019Z,11.60
2019-04-22T07:57:51.860Z,10.50
2019-04-22T08:00:35.721Z,11.03
2019-04-22T08:03:01.342Z,10.80
2019-04-22T08:05:24.841Z,10.70
2019-04-22T08:07:59.440Z,10.60
2019-04-22T08:10:31.410Z,10.70
2019-04-22T08:13:01.842Z,10.23
2019-04-22T08:15:31.284Z,11.70
2019-04-22T08:20:39.188Z,10.10
2019-04-22T08:23:04.634Z,10.43
2019-04-22T08:25:38.829Z,10.25
2019-04-22T08:28:11.390Z,12.07
2019-04-22T08:30:50.509Z,11.00
2019-04-22T08:33:22.224Z,10.10
2019-04-22T08:36:00.808Z,10.93
2019-04-22T08:38:14.690Z,11.10
2019-04-22T08:41:17.863Z,11.97
2019-04-22T08:43:51.455Z,10.23
2019-04-22T08:46:17.039Z,11.43
2019-04-22T08:48:48.438Z,10.73
2019-04-22T08:51:15.065Z,10.17
2019-04-22T08:53:51.857Z,11.90
2019-04-22T08:56:29.865Z,10.10
2019-04-22T08:58:50.169Z,10.63
2019-04-22T09:01:22.682Z,11.17
2019-04-22T09:03:52.750Z,10.80
2019-04-22T09:06:48.072Z,10.53
2019-04-22T09:11:33.720Z,11.23
2019-04-22T09:14:08.666Z,10.40
2019-04-22T09:16:31.819Z,11.57
2019-04-22T09:19:00.893Z,10.80
2019-04-22T09:24:05.021Z,9.43
2019-04-22T09:26:38.857Z,10.47
2019-04-22T09:29:16.163Z,10.47
2019-04-22T09:32:03.855Z,11.77
2019-04-22T09:34:06.490Z,10.10
2019-04-22T09:36:44.326Z,10.10
2019-04-22T09:39:19.557Z,10.47
2019-04-22T09:41:47.610Z,9.93
2019-04-22T09:44:16.466Z,10.50
2019-04-22T09:46:47.121Z,10.37
2019-04-22T09:49:19.306Z,9.20
2019-04-22T09:51:52.540Z,9.97
2019-04-22T09:54:21.691Z,9.20
2019-04-22T09:56:51.776Z,8.90
2019-04-22T09:59:43.690Z,9.37
2019-04-22T10:02:09.952Z,10.00
2019-04-22T10:04:25.370Z,9.17
2019-04-22T10:07:04.282Z,8.90
2019-04-22T10:12:02.750Z,8.03
2019-04-22T10:17:04.965Z,8.73
2019-04-22T10:19:38.746Z,8.23
2019-04-22T10:22:17.106Z,8.70
2019-04-22T10:24:38.809Z,8.50
2019-04-22T10:27:05.979Z,6.53
2019-04-22T10:29:52.210Z,7.23
2019-04-22T10:32:11.296Z,8.27
2019-04-22T10:34:37.927Z,7.90
2019-04-22T10:37:02.696Z,7.63
2019-04-22T10:39:39.923Z,7.33
2019-04-22T10:42:03.147Z,7.00
2019-04-22T10:44:33.245Z,6.67
2019-04-22T10:47:02.590Z,8.10
2019-04-22T10:49:31.844Z,7.80
2019-04-22T10:52:02.665Z,6.87
2019-04-22T10:54:33.689Z,6.07
2019-04-22T10:57:03.265Z,8.43
2019-04-22T10:59:34.351Z,8.53
2019-04-22T11:02:05.594Z,6.87
2019-04-22T11:04:36.339Z,7.33
2019-04-22T11:07:11.099Z,7.50
2019-04-22T11:09:50.767Z,7.60
2019-04-22T11:12:17.031Z,7.93
2019-04-22T11:14:45.428Z,7.03
2019-04-22T11:17:15.612Z,7.70
2019-04-22T11:19:45.803Z,7.43
2019-04-22T11:22:22.114Z,7.47
2019-04-22T11:24:48.584Z,7.33
2019-04-22T11:27:21.198Z,7.20
2019-04-22T11:29:53.205Z,7.60
2019-04-22T11:32:22.589Z,7.90
2019-04-22T11:34:52.075Z,7.50
2019-04-22T11:37:24.766Z,7.17
2019-04-22T11:40:02.163Z,6.30
2019-04-22T11:42:25.943Z,7.00
2019-04-22T11:44:55.386Z,6.57
2019-04-22T11:47:25.548Z,7.60
2019-04-22T11:49:54.976Z,7.53
2019-04-22T11:52:24.742Z,6.67
2019-04-22T11:54:54.921Z,7.70
2019-04-22T11:57:25.372Z,6.77
2019-04-22T11:59:54.812Z,6.50
2019-04-22T12:02:27.159Z,8.40
2019-04-22T12:04:58.217Z,7.20
2019-04-22T12:07:33.577Z,7.40
2019-04-22T12:10:22.342Z,7.63
2019-04-22T12:12:36.314Z,6.90
2019-04-22T12:15:06.512Z,7.20
2019-04-22T12:17:36.157Z,7.43
2019-04-22T12:20:08.799Z,6.90
2019-04-22T12:22:38.900Z,6.60
2019-04-22T12:25:12.366Z,6.75
2019-04-22T12:27:43.123Z,7.40
2019-04-22T12:30:14.614Z,7.00
2019-04-22T12:32:45.560Z,6.80
2019-04-22T12:35:17.878Z,7.10
2019-04-22T12:37:54.072Z,6.97
2019-04-22T12:40:31.552Z,7.50
2019-04-22T12:42:51.387Z,6.80
2019-04-22T12:45:22.461Z,7.20
2019-04-22T12:47:53.827Z,6.60
2019-04-22T12:50:29.237Z,7.13
2019-04-22T12:52:59.415Z,7.07
2019-04-22T12:55:26.073Z,6.83
2019-04-22T12:57:58.631Z,6.20
2019-04-22T13:00:28.463Z,6.60
2019-04-22T13:02:58.906Z,6.63
2019-04-22T13:05:29.206Z,6.10
2019-04-22T13:08:00.099Z,6.50
2019-04-22T13:10:40.473Z,5.60
2019-04-22T13:13:02.792Z,6.07
2019-04-22T13:15:33.041Z,6.67
2019-04-22T13:18:13.576Z,5.20
2019-04-22T13:20:36.650Z,5.30
2019-04-22T13:23:07.585Z,6.00
2019-04-22T13:25:38.791Z,5.10
2019-04-22T13:28:11.235Z,5.70
2019-04-22T13:30:41.721Z,5.30
2019-04-22T13:33:12.667Z,5.70
2019-04-22T13:35:43.632Z,5.20
2019-04-22T13:38:15.237Z,5.20
2019-04-22T13:41:00.670Z,5.60
2019-04-22T13:43:16.759Z,4.47
2019-04-22T13:45:47.756Z,4.83
2019-04-22T13:48:40.041Z,4.90
2019-04-22T13:51:21.939Z,4.40
2019-04-22T13:54:14.016Z,4.53
2019-04-22T13:56:15.560Z,4.67
2019-04-22T13:58:40.992Z,4.43
2019-04-22T14:01:04.929Z,4.70
2019-04-22T14:03:52.270Z,4.50
2019-04-22T14:06:22.681Z,3.90
2019-04-22T14:08:53.430Z,4.20
2019-04-22T14:11:32.374Z,3.83
2019-04-22T14:13:56.608Z,3.37
2019-04-22T14:16:27.001Z,3.90
2019-04-22T14:18:58.131Z,4.20
2019-04-22T14:21:27.564Z,3.80
2019-04-22T14:23:58.605Z,4.20
2019-04-22T14:26:46.888Z,4.20
2019-04-22T14:28:59.984Z,3.70
2019-04-22T14:31:30.893Z,4.97
2019-04-22T14:34:04.976Z,4.33
2019-04-22T14:36:33.039Z,5.20
2019-04-22T14:39:03.943Z,3.97
2019-04-22T14:41:49.734Z,4.67
2019-04-22T14:45:07.109Z,3.90
2019-04-22T14:47:11.602Z,3.47
2019-04-22T14:49:40.643Z,4.00
2019-04-22T14:52:13.036Z,4.30
2019-04-22T14:54:33.695Z,3.80
2019-04-22T14:56:48.577Z,4.37
2019-04-22T14:59:18.866Z,4.93
2019-04-22T15:01:49.768Z,3.90
2019-04-22T15:04:19.659Z,3.80
2019-04-22T15:06:52.754Z,4.27
2019-04-22T15:09:23.993Z,4.33
2019-04-22T15:12:05.779Z,4.60
2019-04-22T15:14:25.781Z,5.50
2019-04-22T15:17:20.814Z,4.27
2019-04-22T15:20:12.231Z,4.30
2019-04-22T15:22:41.854Z,5.00
2019-04-22T15:25:12.463Z,5.00
2019-04-22T15:27:41.868Z,4.57
2019-04-22T15:30:11.861Z,5.23
2019-04-22T15:32:43.140Z,4.30
2019-04-22T15:35:13.407Z,5.63
2019-04-22T15:37:43.456Z,5.37
2019-04-22T15:40:13.237Z,5.47
2019-04-22T15:42:43.816Z,5.10
2019-04-22T15:45:15.147Z,5.63
2019-04-22T15:50:26.704Z,5.37
2019-04-22T15:53:00.389Z,6.10
2019-04-22T15:55:29.137Z,5.83
2019-04-22T15:58:01.809Z,5.47
2019-04-22T16:00:47.877Z,5.60
2019-04-22T16:03:08.474Z,5.80
2019-04-22T16:05:36.474Z,5.83
2019-04-22T16:08:06.680Z,6.20
2019-04-22T16:10:37.741Z,5.70
2019-04-22T16:13:13.217Z,5.23
2019-04-22T16:15:38.614Z,5.43
2019-04-22T16:18:10.579Z,5.10
2019-04-22T16:20:40.520Z,5.43
2019-04-22T16:23:29.771Z,5.00
2019-04-22T16:26:09.438Z,5.77
2019-04-22T16:28:39.659Z,5.70
2019-04-22T16:31:09.421Z,5.87
2019-04-22T16:33:41.438Z,4.70
2019-04-22T16:36:11.034Z,4.53
2019-04-22T16:38:42.795Z,5.00
2019-04-22T16:41:12.893Z,5.00
2019-04-22T16:43:42.931Z,5.70
2019-04-22T16:46:12.201Z,5.20
2019-04-22T16:48:43.410Z,5.67
2019-04-22T16:51:13.893Z,4.53
2019-04-22T16:53:43.318Z,6.33
2019-04-22T16:56:13.021Z,4.90
2019-04-22T16:58:44.814Z,5.07
2019-04-22T17:01:48.557Z,4.73
2019-04-22T17:04:26.322Z,4.50
2019-04-22T17:06:57.481Z,4.33
2019-04-22T17:09:27.853Z,5.00
2019-04-22T17:11:58.101Z,4.10
2019-04-22T17:14:37.522Z,4.27
2019-04-22T17:17:00.166Z,4.17
2019-04-22T17:19:31.081Z,4.10
2019-04-22T17:22:01.695Z,5.27
2019-04-22T17:24:31.913Z,4.60
2019-04-22T17:27:02.276Z,4.83
2019-04-22T17:29:34.665Z,4.90
2019-04-22T17:32:10.132Z,4.90
2019-04-22T17:34:36.020Z,4.90
2019-04-22T17:37:14.179Z,5.20
2019-04-22T17:39:49.143Z,3.43
2019-04-22T17:42:29.393Z,3.00
2019-04-22T17:45:22.281Z,4.33
2019-04-22T17:48:14.188Z,3.30
2019-04-22T17:50:44.435Z,4.10
2019-04-22T17:53:24.881Z,3.73
2019-04-22T17:55:49.465Z,4.30
2019-04-22T17:58:21.094Z,3.80
2019-04-22T18:00:44.473Z,4.17
2019-04-22T18:03:12.766Z,4.00
2019-04-22T18:05:41.006Z,3.70
2019-04-22T18:08:25.606Z,2.90
2019-04-22T18:10:56.084Z,3.43
2019-04-22T18:13:32.070Z,3.30
2019-04-22T18:16:01.041Z,3.47
2019-04-22T18:18:33.650Z,3.63
2019-04-22T18:20:52.127Z,3.60
2019-04-22T18:23:19.222Z,3.10
2019-04-22T18:26:00.457Z,3.30
2019-04-22T18:28:42.192Z,3.20
2019-04-22T18:31:03.188Z,2.90
2019-04-22T18:33:34.370Z,2.53
2019-04-22T18:36:05.227Z,3.33
2019-04-22T18:38:48.146Z,2.93
2019-04-22T18:41:04.849Z,3.00
2019-04-22T18:43:44.718Z,2.70
2019-04-22T18:46:15.721Z,2.73
2019-04-22T18:48:45.878Z,2.87
2019-04-22T18:51:30.810Z,2.70
2019-04-22T18:54:19.687Z,2.80
2019-04-22T18:56:46.693Z,3.00
2019-04-22T18:59:10.443Z,2.70
2019-04-22T19:01:33.582Z,2.60
2019-04-22T19:04:11.586Z,3.30
2019-04-22T19:06:56.339Z,2.97
2019-04-22T19:09:38.269Z,2.67
2019-04-22T19:12:18.104Z,2.80
2019-04-22T19:14:41.512Z,3.20
2019-04-22T19:17:21.660Z,2.70
2019-04-22T19:19:43.633Z,2.67
2019-04-22T19:22:17.709Z,2.43
2019-04-22T19:24:44.318Z,2.60
2019-04-22T19:27:15.725Z,2.70
2019-04-22T19:29:55.873Z,2.90
2019-04-22T19:32:46.417Z,2.47
2019-04-22T19:35:09.751Z,2.30
2019-04-22T19:37:44.209Z,2.20
2019-04-22T19:40:36.949Z,2.77
2019-04-22T19:42:57.263Z,2.23
2019-04-22T19:45:15.731Z,2.37
2019-04-22T19:47:58.492Z,1.87
2019-04-22T19:50:28.100Z,1.90
2019-04-22T19:52:59.915Z,1.97
2019-04-22T19:55:30.915Z,2.20
2019-04-22T19:57:54.786Z,1.80
2019-04-22T20:00:49.434Z,1.70
2019-04-22T20:04:12.115Z,1.80
2019-04-22T20:06:37.852Z,1.80
2019-04-22T20:09:16.984Z,1.90
2019-04-22T20:11:41.852Z,1.70
2019-04-22T20:14:12.680Z,1.73
2019-04-22T20:16:38.568Z,1.83
2019-04-22T20:19:19.123Z,2.13
2019-04-22T20:21:51.818Z,1.70
2019-04-22T20:24:10.044Z,1.77
2019-04-22T20:26:59.536Z,1.93
2019-04-22T20:29:27.139Z,1.80
2019-04-22T20:31:57.212Z,1.77
2019-04-22T20:34:26.472Z,1.70
2019-04-22T20:37:03.523Z,1.80
2019-04-22T20:39:33.420Z,1.53
2019-04-22T20:42:12.445Z,1.63
2019-04-22T20:44:36.971Z,1.57
2019-04-22T20:47:04.615Z,2.40
2019-04-22T20:49:40.335Z,2.00
2019-04-22T20:52:13.664Z,1.80
2019-04-22T20:54:40.778Z,1.63
2019-04-22T20:57:07.375Z,2.05
2019-04-22T20:59:42.521Z,2.73
2019-04-22T21:02:07.617Z,2.07
2019-04-22T21:04:35.932Z,1.87
2019-04-22T21:07:16.808Z,2.10
2019-04-22T21:09:49.228Z,2.30
2019-04-22T21:12:14.888Z,2.30
2019-04-22T21:14:55.180Z,2.70
2019-04-22T21:17:25.011Z,2.20
2019-04-22T21:20:00.126Z,1.70
2019-04-22T21:22:25.997Z,2.80
2019-04-22T21:24:52.845Z,2.53
2019-04-22T21:27:32.227Z,2.90
2019-04-22T21:29:56.964Z,2.30
2019-04-22T21:32:32.511Z,2.77
2019-04-22T21:35:22.943Z,1.90
2019-04-22T21:37:37.866Z,2.43
2019-04-22T21:39:58.572Z,2.30
2019-04-22T21:42:34.719Z,3.00
2019-04-22T21:45:04.732Z,2.50
2019-04-22T21:47:44.863Z,2.40
2019-04-22T21:50:28.243Z,2.50
2019-04-22T21:52:40.732Z,2.03
2019-04-22T21:55:16.637Z,2.40
2019-04-22T21:58:08.021Z,2.57
2019-04-22T22:00:53.497Z,2.00
2019-04-22T22:03:20.634Z,2.20
2019-04-22T22:05:36.875Z,2.50
2019-04-22T22:08:23.219Z,2.40
2019-04-22T22:10:44.989Z,2.20
2019-04-22T22:13:20.133Z,3.40
2019-04-22T22:15:51.063Z,2.77
2019-04-22T22:18:16.543Z,3.80
2019-04-22T22:21:13.051Z,2.80
2019-04-22T22:25:52.275Z,2.30
2019-04-22T22:28:40.005Z,2.60
2019-04-22T22:31:05.084Z,2.77
2019-04-22T22:33:37.403Z,3.10
2019-04-22T22:36:03.585Z,2.47
2019-04-22T22:38:31.447Z,2.43
2019-04-22T22:40:48.000Z,3.10
2019-04-22T22:43:26.606Z,3.00
2019-04-22T22:45:55.254Z,2.90
2019-04-22T22:48:43.429Z,2.47
2019-04-22T22:51:09.864Z,2.67
2019-04-22T22:53:47.910Z,2.60
2019-04-22T22:56:10.736Z,2.83
2019-04-22T22:58:50.528Z,2.83
2019-04-22T23:01:14.985Z,2.77
2019-04-22T23:06:26.167Z,3.30
2019-04-22T23:09:01.879Z,2.50
2019-04-22T23:11:40.487Z,2.87
2019-04-22T23:13:57.874Z,3.13
2019-04-22T23:16:17.669Z,2.60
2019-04-22T23:18:57.625Z,2.93
2019-04-22T23:21:35.191Z,2.80
2019-04-22T23:24:17.352Z,2.83
2019-04-22T23:26:58.844Z,3.20
2019-04-22T23:29:36.649Z,3.30
2019-04-22T23:32:17.248Z,3.50
2019-04-22T23:34:53.441Z,3.23
2019-04-22T23:37:21.710Z,2.63
2019-04-22T23:40:15.786Z,3.03
2019-04-22T23:42:33.397Z,3.30
2019-04-22T23:45:09.057Z,3.00
2019-04-22T23:47:35.371Z,2.60
2019-04-22T23:50:14.179Z,3.70
2019-04-22T23:52:47.948Z,3.10
2019-04-22T23:55:23.038Z,2.80
2019-04-22T23:57:53.273Z,3.70
